Takamatsu Airport, Japan

4:36 PM JST on December 19, 2014 (GMT +0900)
Takamatsu | Change Station
CLOSE
Current Station
Airport
Location: Takamatsu Airport,
Elevation: 617 ft
Nearby Weather Stations

Elev 617 ft 34.21 °N, 134.02 °E | Updated 36 minutes ago

Scattered Clouds
Scattered Clouds
41 °F
Feels Like 37 °F
N
6
Wind Variable Wind from ENE

Today
High -- | Low -- °F
--% Chance of Precip.
Yesterday
High -- | Low -- °F
Precip. -- in
7:04 AM 4:56 PM
Waning Crescent, 9% visible
Pressure 30.36 in
Visibility 6.2 miles
Clouds Few 3000 ft
Scattered Clouds 18000 ft
Windchill 37 °F
Dew Point 28 °F
Humidity 61%
Rainfall 0.00 in
Snow Depth Not available.
UV 0 out of 12
Pollen Not available.
Air Quality Not available.
Flu Activity Not available.
METAR RJOT 190700Z 06005KT 9999 FEW030 SCT180 05/M02 Q1028

More Conditions Fewer Conditions

Pressure 30.36 in
Visibility 6.2 miles
Clouds Few 3000 ft
Scattered Clouds 18000 ft
Windchill 37 °F
Dew Point 28 °F
Humidity 61%
Rainfall 0.00 in
Snow Depth Not available.
UV 0 out of 12
Pollen Not available.
Air Quality Not available.
Flu Activity Not available.
METAR RJOT 190700Z 06005KT 9999 FEW030 SCT180 05/M02 Q1028

More Conditions Fewer Conditions

10-Day Weather Forecast

Almanac

Astronomy

Dec. 19, 2014 Rise Set
Actual Time
Civil Twilight
Nautical Twilight
Astronomical Twilight
Moon
Length of Visible Light
Length of Day
Tomorrow will be .
, % of the Moon is Illuminated

Today's Extremes

Country Highs Country Lows

Community

WunderPhotos

Upload Photos

1,778,953 photos uploaded!

WunderBlogs® & News

Nearby

Air Quality

  Air Quality AQ Index Pollutant
Not available.

Snow Depth

Station Depth Elevation

Earthquake Activity

City Distance Mag. Time & Date
Minimum magnitude displayed is 2.5.

Coastal Water Temperatures

Place Temperature

Nearby Weather Stations